For More Information Regarding This Station Mundaring Station

Station Historical Data
 
Daily Summary for April 18, 2014 Units:  Metric    English   Both
« Previous Day
Next Day »
Daily Weekly Monthly Yearly Custom
  Current: High: Low: Average:
Temperature: 23.1 °C 25.7 °C 12.8 °C 18.4 °C
Dew Point: 12.1 °C 13.1 °C 10 °C 11.6 °C
Humidity: 50% 90% 38% 68%
Wind Speed: 0km/h 6.9km/h 0km/h 1km/h
Wind Gust: 0km/h 18.5km/h - -
WindCalm - - ESE
Pressure: 1017.8 hPa 1021.9 hPa 1017.2 hPa -
Precipitation: 0 mm      
Historical Graphs
 
 
Tabular Data for April 18, 2014
Time Temperature Dew Point Pressure Wind Wind Speed Wind Gust Humidity Rainfall Rate (Hourly) solar Conditions
00:03 14.7 °C 12.2 °C 1021.6 hPa Calm   1.6 km/h 85% 0 mm WeatherDisplay:10.37 W/m2 CLR
00:08 14.7 °C 12.2 °C 1021.6 hPa Calm     85% 0 mm WeatherDisplay:10.37 W/m2 CLR
00:13 14.6 °C 12.1 °C 1021.6 hPa SW 1.6 km/h 5.6 km/h 85% 0 mm WeatherDisplay:10.37 W/m2 CLR
00:18 14.6 °C 12.1 °C 1021.6 hPa Calm     85% 0 mm WeatherDisplay:10.37 W/m2 CLR
00:23 14.6 °C 12.1 °C 1021.6 hPa Calm     85% 0 mm WeatherDisplay:10.37 W/m2 CLR
00:28 14.6 °C 12.1 °C 1021.6 hPa SW 0.2 km/h 1.9 km/h 85% 0 mm WeatherDisplay:10.37 W/m2 CLR
00:33 14.6 °C 11.9 °C 1021.6 hPa Calm     84% 0 mm WeatherDisplay:10.37 W/m2 CLR
00:38 14.6 °C 11.8 °C 1021.6 hPa Calm     83% 0 mm WeatherDisplay:10.37 W/m2 CLR
00:43 14.7 °C 11.7 °C 1021.6 hPa South 0.5 km/h 3.7 km/h 82% 0 mm WeatherDisplay:10.37 W/m2 CLR
00:48 14.8 °C 11.6 °C 1021.6 hPa SSE 0.3 km/h 5.6 km/h 81% 0 mm WeatherDisplay:10.37 W/m2 CLR
00:53 14.9 °C 11.5 °C 1021.6 hPa SSE 0.6 km/h 6.4 km/h 80% 0 mm WeatherDisplay:10.37 W/m2 CLR
00:58 14.9 °C 11.5 °C 1021.6 hPa Calm     80% 0 mm WeatherDisplay:10.37 W/m2 CLR
01:03 14.9 °C 11.4 °C 1021.6 hPa Calm   1.9 km/h 80% 0 mm WeatherDisplay:10.37 W/m2 CLR
01:08 14.9 °C 11.3 °C 1021.6 hPa Calm     79% 0 mm WeatherDisplay:10.37 W/m2 CLR
01:13 14.8 °C 11.2 °C 1021.6 hPa Calm     79% 0 mm WeatherDisplay:10.37 W/m2 CLR
01:18 14.8 °C 11.2 °C 1021.6 hPa Calm     79% 0 mm WeatherDisplay:10.37 W/m2 CLR
01:23 14.8 °C 11.2 °C 1021.6 hPa Calm   1.9 km/h 79% 0 mm WeatherDisplay:10.37 W/m2 CLR
01:28 14.8 °C 11 °C 1021.2 hPa Calm   1.9 km/h 78% 0 mm WeatherDisplay:10.37 W/m2 CLR
01:33 14.7 °C 10.9 °C 1021.2 hPa Calm     78% 0 mm WeatherDisplay:10.37 W/m2 CLR
01:38 14.7 °C 10.9 °C 1021.2 hPa SE 0.5 km/h 5.6 km/h 78% 0 mm WeatherDisplay:10.37 W/m2 CLR
01:43 14.7 °C 10.7 °C 1021.6 hPa ESE 0.8 km/h 3.7 km/h 77% 0 mm WeatherDisplay:10.37 W/m2 CLR
01:48 14.7 °C 10.7 °C 1021.2 hPa ESE 0.2 km/h 3.7 km/h 77% 0 mm WeatherDisplay:10.37 W/m2 CLR
01:53 14.6 °C 10.6 °C 1021.6 hPa Calm     77% 0 mm WeatherDisplay:10.37 W/m2 CLR
01:58 14.6 °C 10.6 °C 1021.2 hPa Calm     77% 0 mm WeatherDisplay:10.37 W/m2 CLR
02:03 14.5 °C 10.5 °C 1021.6 hPa SE 0.5 km/h 3.7 km/h 77% 0 mm WeatherDisplay:10.37 W/m2 CLR
02:08 14.4 °C 10.4 °C 1021.6 hPa East 2.1 km/h 9.3 km/h 77% 0 mm WeatherDisplay:10.37 W/m2 CLR
02:13 14.4 °C 10.4 °C 1021.6 hPa Calm   1.9 km/h 77% 0 mm WeatherDisplay:10.37 W/m2 CLR
02:18 14.4 °C 10.4 °C 1021.6 hPa NNE 1.8 km/h 7.4 km/h 77% 0 mm WeatherDisplay:10.37 W/m2 CLR
02:23 14.4 °C 10.4 °C 1021.6 hPa NNE 1.1 km/h 5.6 km/h 77% 0 mm WeatherDisplay:10.37 W/m2 CLR
02:28 14.3 °C 10.3 °C 1021.2 hPa ESE 1.4 km/h 7.4 km/h 77% 0 mm WeatherDisplay:10.37 W/m2 CLR
02:33 14.3 °C 10.3 °C 1021.2 hPa ENE 0.3 km/h 3.7 km/h 77% 0 mm WeatherDisplay:10.37 W/m2 CLR
02:38 14.3 °C 10.3 °C 1021.2 hPa South 3.4 km/h 9.3 km/h 77% 0 mm WeatherDisplay:10.37 W/m2 CLR
02:43 14.4 °C 10.4 °C 1021.2 hPa NNE 2.3 km/h 7.4 km/h 77% 0 mm WeatherDisplay:10.37 W/m2 CLR
02:48 14.3 °C 10.3 °C 1021.2 hPa ENE 3.5 km/h 6.4 km/h 77% 0 mm WeatherDisplay:10.37 W/m2 CLR
02:53 14.3 °C 10.3 °C 1021.2 hPa SE 0.8 km/h 8 km/h 77% 0 mm WeatherDisplay:10.37 W/m2 CLR
02:58 14.3 °C 10.6 °C 1021.2 hPa East 0.6 km/h 3.7 km/h 78% 0 mm WeatherDisplay:10.37 W/m2 CLR
03:03 14.3 °C 10.6 °C 1021.2 hPa East 0.5 km/h 3.7 km/h 78% 0 mm WeatherDisplay:10.37 W/m2 CLR
03:08 14.3 °C 10.7 °C 1021.2 hPa SE 0.3 km/h 1.9 km/h 79% 0 mm WeatherDisplay:10.37 W/m2 CLR
03:13 14.3 °C 10.7 °C 1021.2 hPa Calm   1.9 km/h 79% 0 mm WeatherDisplay:10.37 W/m2 CLR
03:18 14.3 °C 10.7 °C 1021.2 hPa Calm     79% 0 mm WeatherDisplay:10.37 W/m2 CLR
03:23 14.3 °C 10.7 °C 1021.2 hPa East 3.7 km/h 9.3 km/h 79% 0 mm WeatherDisplay:10.37 W/m2 CLR
03:28 14.3 °C 10.7 °C 1021.2 hPa SE 1.1 km/h 5.6 km/h 79% 0 mm WeatherDisplay:10.37 W/m2 CLR
03:33 14.3 °C 10.9 °C 1021.2 hPa ENE 1.9 km/h 11.1 km/h 80% 0 mm WeatherDisplay:10.37 W/m2 CLR
03:38 14.3 °C 10.9 °C 1021.2 hPa ESE 0.3 km/h 1.9 km/h 80% 0 mm WeatherDisplay:10.37 W/m2 CLR
03:43 14.2 °C 10.8 °C 1021.2 hPa East 0.3 km/h 3.7 km/h 80% 0 mm WeatherDisplay:10.37 W/m2 CLR
03:48 14.2 °C 10.9 °C 1021.2 hPa ESE 2.1 km/h 7.4 km/h 81% 0 mm WeatherDisplay:10.37 W/m2 CLR
03:53 14.2 °C 10.9 °C 1021.2 hPa ESE 0.5 km/h 3.7 km/h 81% 0 mm WeatherDisplay:10.37 W/m2 CLR
03:58 14.1 °C 10.8 °C 1021.2 hPa East 0.2 km/h 1.9 km/h 81% 0 mm WeatherDisplay:10.37 W/m2 CLR
04:03 14 °C 10.8 °C 1021.2 hPa Calm   1.6 km/h 81% 0 mm WeatherDisplay:10.37 W/m2 CLR
04:08 13.9 °C 10.9 °C 1021.2 hPa SE 0.3 km/h 1.9 km/h 82% 0 mm WeatherDisplay:10.37 W/m2 CLR
04:13 13.8 °C 10.8 °C 1021.2 hPa Calm     82% 0 mm WeatherDisplay:10.37 W/m2 CLR
04:18 13.8 °C 10.8 °C 1021.2 hPa SE 1.9 km/h 7.4 km/h 82% 0 mm WeatherDisplay:10.37 W/m2 CLR
04:23 13.7 °C 10.8 °C 1021.2 hPa ESE 0.5 km/h 3.7 km/h 83% 0 mm WeatherDisplay:10.37 W/m2 CLR
04:28 13.7 °C 10.8 °C 1021.2 hPa ESE 0.5 km/h 1.9 km/h 83% 0 mm WeatherDisplay:10.37 W/m2 CLR
04:33 13.7 °C 10.8 °C 1021.2 hPa East 0.3 km/h 9.7 km/h 83% 0 mm WeatherDisplay:10.37 W/m2 CLR
04:38 13.7 °C 10.8 °C 1021.2 hPa SE 0.3 km/h 1.9 km/h 83% 0 mm WeatherDisplay:10.37 W/m2 CLR
04:43 13.6 °C 10.9 °C 1021.2 hPa ENE 0.8 km/h 5.6 km/h 84% 0 mm WeatherDisplay:10.37 W/m2 CLR
04:48 13.6 °C 10.9 °C 1021.2 hPa ESE 0.6 km/h 7.4 km/h 84% 0 mm WeatherDisplay:10.37 W/m2 CLR
04:53 13.6 °C 10.9 °C 1021.2 hPa ESE 1.6 km/h 5.6 km/h 84% 0 mm WeatherDisplay:10.37 W/m2 CLR
04:58 13.6 °C 11.1 °C 1021.6 hPa Calm     85% 0 mm WeatherDisplay:10.37 W/m2 CLR
05:03 13.5 °C 11 °C 1021.6 hPa East 1.8 km/h 5.6 km/h 85% 0 mm WeatherDisplay:10.37 W/m2 CLR
05:08 13.5 °C 11 °C 1021.6 hPa ESE 0.3 km/h 1.9 km/h 85% 0 mm WeatherDisplay:10.37 W/m2 CLR
05:13 13.4 °C 11.2 °C 1021.6 hPa Calm     86% 0 mm WeatherDisplay:10.37 W/m2 CLR
05:18 13.4 °C 11.2 °C 1021.6 hPa NE 4.8 km/h 9.3 km/h 86% 0 mm WeatherDisplay:10.37 W/m2 CLR
05:23 13.4 °C 11.1 °C 1021.6 hPa Calm     86% 0 mm WeatherDisplay:10.37 W/m2 CLR
05:28 13.3 °C 11.1 °C 1021.6 hPa NE 1.3 km/h 7.4 km/h 86% 0 mm WeatherDisplay:10.37 W/m2 CLR
05:33 13.3 °C 11.2 °C 1021.6 hPa ENE 1.9 km/h 7.4 km/h 87% 0 mm WeatherDisplay:10.37 W/m2 CLR
05:38 13.3 °C 11.2 °C 1021.6 hPa Calm   1.9 km/h 87% 0 mm WeatherDisplay:10.37 W/m2 CLR
05:43 13.3 °C 11.2 °C 1021.6 hPa SSE 0.3 km/h 1.9 km/h 87% 0 mm WeatherDisplay:10.37 W/m2 CLR
05:48 13.2 °C 11.1 °C 1021.6 hPa ESE 0.8 km/h 5.6 km/h 87% 0 mm WeatherDisplay:10.37 W/m2 CLR
05:53 13.2 °C 11.2 °C 1021.6 hPa Calm   1.9 km/h 88% 0 mm WeatherDisplay:10.37 W/m2 CLR
05:58 13.2 °C 11.2 °C 1021.6 hPa South 1 km/h 6.4 km/h 88% 0 mm WeatherDisplay:10.37 W/m2 CLR
06:03 13.1 °C 11.2 °C 1021.6 hPa Calm     88% 0 mm WeatherDisplay:10.37 W/m2 CLR
06:08 13.1 °C 11.2 °C 1021.6 hPa East 0.2 km/h 1.9 km/h 88% 0 mm WeatherDisplay:10.37 W/m2 CLR
06:13 13.1 °C 11.1 °C 1021.6 hPa Calm     88% 0 mm WeatherDisplay:10.37 W/m2 CLR
06:18 13 °C 11.2 °C 1021.2 hPa Calm     89% 0 mm WeatherDisplay:10.37 W/m2 CLR
06:23 13 °C 11.2 °C 1021.2 hPa East 2.6 km/h 7.4 km/h 89% 0 mm WeatherDisplay:10.37 W/m2 CLR
06:28 12.9 °C 11.2 °C 1021.2 hPa ESE 1.6 km/h 5.6 km/h 89% 0 mm WeatherDisplay:10.37 W/m2 CLR
06:33 12.9 °C 11.1 °C 1021.2 hPa ESE 0.2 km/h 3.7 km/h 89% 0 mm WeatherDisplay:10.37 W/m2 CLR
06:38 12.8 °C 11.1 °C 1021.6 hPa ESE 2.3 km/h 9.3 km/h 89% 0 mm WeatherDisplay:10.37 W/m2 CLR
06:43 12.8 °C 11.2 °C 1021.2 hPa ESE 0.2 km/h 3.7 km/h 90% 0 mm WeatherDisplay:10.37 W/m2 CLR
06:48 12.8 °C 11.2 °C 1021.6 hPa ENE 0.2 km/h 1.9 km/h 90% 0 mm WeatherDisplay:10.37 W/m2 CLR
06:53 12.8 °C 11.2 °C 1021.6 hPa Calm     90% 0 mm WeatherDisplay:10.37 W/m2 CLR
06:58 12.8 °C 11.2 °C 1021.6 hPa Calm     90% 0 mm WeatherDisplay:10.37 W/m2 CLR
07:03 12.8 °C 11.2 °C 1021.6 hPa SE 1.6 km/h 9.3 km/h 90% 0 mm WeatherDisplay:10.37 W/m2 CLR
07:08 12.8 °C 11.2 °C 1021.6 hPa ENE 0.6 km/h 5.6 km/h 90% 0 mm WeatherDisplay:10.37 W/m2 CLR
07:13 12.9 °C 11.3 °C 1021.6 hPa North 0.2 km/h 1.9 km/h 90% 0 mm WeatherDisplay:10.37 W/m2 CLR
07:18 12.9 °C 11.3 °C 1021.6 hPa NE 0.8 km/h 7.4 km/h 90% 0 mm WeatherDisplay:10.37 W/m2 CLR
07:23 13.1 °C 11.4 °C 1021.6 hPa NE 0.2 km/h 1.9 km/h 90% 0 mm WeatherDisplay:10.37 W/m2 CLR
07:28 13.1 °C 11.5 °C 1021.6 hPa SSE 0.6 km/h 3.7 km/h 90% 0 mm WeatherDisplay:10.37 W/m2 CLR
07:33 13.4 °C 11.6 °C 1021.9 hPa East 2.1 km/h 7.4 km/h 89% 0 mm WeatherDisplay:10.37 W/m2 CLR
07:38 13.6 °C 11.7 °C 1021.6 hPa NNE 1.1 km/h 7.4 km/h 88% 0 mm WeatherDisplay:10.37 W/m2 CLR
07:43 13.7 °C 11.6 °C 1021.6 hPa ENE 4.5 km/h 11.1 km/h 87% 0 mm WeatherDisplay:10.37 W/m2 CLR
07:48 13.8 °C 11.7 °C 1021.9 hPa SE 0.8 km/h 3.7 km/h 87% 0 mm WeatherDisplay:10.37 W/m2 CLR
07:53 13.9 °C 11.8 °C 1021.9 hPa ESE 0.3 km/h 3.7 km/h 87% 0 mm WeatherDisplay:10.37 W/m2 CLR
07:58 14.1 °C 11.8 °C 1021.6 hPa NE 1.6 km/h 11.1 km/h 86% 0 mm WeatherDisplay:10.37 W/m2 CLR
08:03 14.1 °C 11.8 °C 1021.6 hPa ESE 4 km/h 16.7 km/h 86% 0 mm WeatherDisplay:10.37 W/m2 CLR
08:08 14.3 °C 11.8 °C 1021.9 hPa South 6.9 km/h 18.5 km/h 85% 0 mm WeatherDisplay:10.37 W/m2 CLR
08:13 14.5 °C 12 °C 1021.6 hPa ESE 3.1 km/h 7.4 km/h 85% 0 mm WeatherDisplay:10.37 W/m2 CLR
08:18 14.8 °C 12.1 °C 1021.6 hPa NNW 2.3 km/h 9.3 km/h 84% 0 mm WeatherDisplay:10.37 W/m2 CLR
08:23 15 °C 12.1 °C 1021.6 hPa NE 1 km/h 5.6 km/h 83% 0 mm WeatherDisplay:10.37 W/m2 CLR
08:28 15.2 °C 12.1 °C 1021.9 hPa SE 4.3 km/h 13 km/h 82% 0 mm WeatherDisplay:10.37 W/m2 CLR
08:33 15.2 °C 12.2 °C 1021.9 hPa NE 4.5 km/h 9.3 km/h 82% 0 mm WeatherDisplay:10.37 W/m2 CLR
08:38 15.2 °C 12 °C 1021.6 hPa South 0.3 km/h 1.9 km/h 81% 0 mm WeatherDisplay:10.37 W/m2 CLR
08:43 15.6 °C 12.3 °C 1021.6 hPa Calm   1.9 km/h 81% 0 mm WeatherDisplay:10.37 W/m2 CLR
08:44 15.6 °C 12.2 °C 1021.6 hPa ESE 3.5 km/h 5.6 km/h 80% 0 mm WeatherDisplay:10.37 W/m2 CLR
08:49 15.9 °C 12.3 °C 1021.6 hPa SE 1.1 km/h 11.1 km/h 79% 0 mm WeatherDisplay:10.37 W/m2 CLR
08:54 15.9 °C 12.1 °C 1021.6 hPa NNE 2.4 km/h 7.4 km/h 78% 0 mm WeatherDisplay:10.37 W/m2 CLR
08:59 16.1 °C 12.4 °C 1021.6 hPa ENE 1.1 km/h 5.6 km/h 79% 0 mm WeatherDisplay:10.37 W/m2 CLR
09:04 16.5 °C 12.7 °C 1021.6 hPa WSW 1.9 km/h 5.6 km/h 78% 0 mm WeatherDisplay:10.37 W/m2 CLR
09:08 16.9 °C 12.4 °C 1021.6 hPa NNE 1.8 km/h 7.4 km/h 75% 0 mm WeatherDisplay:10.37 W/m2 CLR
09:13 17.2 °C 12.5 °C 1021.6 hPa East 2.9 km/h 11.1 km/h 74% 0 mm WeatherDisplay:10.37 W/m2 CLR
09:18 17.2 °C 12.6 °C 1021.6 hPa SE 0.2 km/h 1.9 km/h 74% 0 mm WeatherDisplay:10.37 W/m2 CLR
09:23 17.5 °C 12.6 °C 1021.6 hPa East 2.3 km/h 7.4 km/h 73% 0 mm WeatherDisplay:10.37 W/m2 CLR
09:28 17.7 °C 12.6 °C 1021.6 hPa ENE 2.1 km/h 7.4 km/h 72% 0 mm WeatherDisplay:10.37 W/m2 CLR
09:33 18 °C 12.9 °C 1021.6 hPa NE 1.6 km/h 5.6 km/h 72% 0 mm WeatherDisplay:10.37 W/m2 CLR
09:38 18.4 °C 12.9 °C 1021.6 hPa NE 2.3 km/h 5.6 km/h 70% 0 mm WeatherDisplay:10.37 W/m2 CLR
09:43 18.9 °C 12.8 °C 1021.6 hPa North 1.3 km/h 5.6 km/h 68% 0 mm WeatherDisplay:10.37 W/m2 CLR
09:48 18.9 °C 12.7 °C 1021.2 hPa ENE 2.7 km/h 5.6 km/h 67% 0 mm WeatherDisplay:10.37 W/m2 CLR
09:53 18.4 °C 12.6 °C 1021.2 hPa ENE 0.2 km/h 1.9 km/h 69% 0 mm WeatherDisplay:10.37 W/m2 CLR
09:58 18.7 °C 12.7 °C 1021.2 hPa Calm   1.9 km/h 68% 0 mm WeatherDisplay:10.37 W/m2 CLR
10:03 19 °C 12.7 °C 1021.2 hPa North 1.9 km/h 5.6 km/h 67% 0 mm WeatherDisplay:10.37 W/m2 CLR
10:08 18.9 °C 12.4 °C 1021.2 hPa SE 0.2 km/h 1.9 km/h 66% 0 mm WeatherDisplay:10.37 W/m2 CLR
10:13 19.4 °C 12.6 °C 1021.2 hPa SE 3.5 km/h 11.1 km/h 65% 0 mm WeatherDisplay:10.37 W/m2 CLR
10:18 19.4 °C 12.4 °C 1020.9 hPa North 2.7 km/h 7.4 km/h 64% 0 mm WeatherDisplay:10.37 W/m2 CLR
10:23 19.3 °C 12.6 °C 1020.9 hPa ENE 1.3 km/h 5.6 km/h 65% 0 mm WeatherDisplay:10.37 W/m2 CLR
10:28 19.7 °C 12.7 °C 1020.9 hPa NE 1.6 km/h 5.6 km/h 64% 0 mm WeatherDisplay:10.37 W/m2 CLR
10:33 19.6 °C 12.6 °C 1020.9 hPa ENE 1.1 km/h 3.7 km/h 64% 0 mm WeatherDisplay:10.37 W/m2 CLR
10:38 20 °C 13 °C 1020.9 hPa ENE 1.6 km/h 4.8 km/h 64% 0 mm WeatherDisplay:10.37 W/m2 CLR
10:43 20.3 °C 12.5 °C 1020.9 hPa ESE 3.4 km/h 7.4 km/h 61% 0 mm WeatherDisplay:10.37 W/m2 CLR
10:48 20.6 °C 12.8 °C 1020.5 hPa SE 1.4 km/h 11.1 km/h 61% 0 mm WeatherDisplay:10.37 W/m2 CLR
10:53 20.9 °C 12.6 °C 1020.5 hPa SSE 6.1 km/h 11.1 km/h 59% 0 mm WeatherDisplay:10.37 W/m2 CLR
10:58 21.1 °C 13.1 °C 1020.5 hPa SE 0.6 km/h 3.7 km/h 60% 0 mm WeatherDisplay:10.37 W/m2 CLR
11:03 21.1 °C 12.7 °C 1020.5 hPa ESE 2.1 km/h 7.4 km/h 59% 0 mm WeatherDisplay:10.37 W/m2 CLR
11:08 20.9 °C 12.6 °C 1020.5 hPa NNW 1.8 km/h 5.6 km/h 59% 0 mm WeatherDisplay:10.37 W/m2 CLR
11:13 21.3 °C 12.7 °C 1020.2 hPa NE 0.8 km/h 3.7 km/h 58% 0 mm WeatherDisplay:10.37 W/m2 CLR
11:18 21.7 °C 13.1 °C 1020.2 hPa NNE 3.2 km/h 5.6 km/h 58% 0 mm WeatherDisplay:10.37 W/m2 CLR
11:23 22.4 °C 12.9 °C 1020.2 hPa SE 2.4 km/h 7.4 km/h 55% 0 mm WeatherDisplay:10.37 W/m2 CLR
11:28 22.2 °C 12.7 °C 1020.2 hPa Calm   1.9 km/h 55% 0 mm WeatherDisplay:10.37 W/m2 CLR
11:33 22.1 °C 12.6 °C 1019.9 hPa Calm   1.9 km/h 55% 0 mm WeatherDisplay:10.37 W/m2 CLR
11:38 22.3 °C 12.8 °C 1019.9 hPa ENE 0.6 km/h 5.6 km/h 55% 0 mm WeatherDisplay:10.37 W/m2 CLR
11:43 22 °C 12.6 °C 1019.9 hPa ENE 1.8 km/h 5.6 km/h 55% 0 mm WeatherDisplay:10.37 W/m2 CLR
11:48 22.1 °C 12.9 °C 1019.9 hPa East 0.5 km/h 1.9 km/h 56% 0 mm WeatherDisplay:10.37 W/m2 CLR
11:53 22.7 °C 12.7 °C 1019.9 hPa North 2.4 km/h 5.6 km/h 53% 0 mm WeatherDisplay:10.37 W/m2 CLR
11:58 23.3 °C 12.3 °C 1019.9 hPa NE 2.6 km/h 5.6 km/h 50% 0 mm WeatherDisplay:10.37 W/m2 CLR
12:01 23.4 °C 12.7 °C 1019.9 hPa Calm   1.9 km/h 51% 0 mm WeatherDisplay:10.37 W/m2 CLR
12:02 23.6 °C 13.1 °C 1019.9 hPa Calm   1.9 km/h 52% 0 mm WeatherDisplay:10.37 W/m2 CLR
12:03 23.7 °C 12.9 °C 1019.9 hPa NE 1 km/h 5.6 km/h 51% 0 mm WeatherDisplay:10.37 W/m2 CLR
12:04 23.8 °C 13.1 °C 1019.5 hPa NE 0.3 km/h 1.9 km/h 51% 0 mm WeatherDisplay:10.37 W/m2 CLR
12:09 24.2 °C 12.8 °C 1019.5 hPa East 2.7 km/h 6.4 km/h 49% 0 mm WeatherDisplay:10.37 W/m2 CLR
12:10 24.2 °C 12.8 °C 1019.5 hPa East 3.2 km/h 9.7 km/h 49% 0 mm WeatherDisplay:10.37 W/m2 CLR
12:15 23.9 °C 12.8 °C 1019.5 hPa SE 2.7 km/h 7.4 km/h 50% 0 mm WeatherDisplay:10.37 W/m2 CLR
12:20 23.6 °C 12.9 °C 1019.2 hPa ENE 0.2 km/h   51% 0 mm WeatherDisplay:10.37 W/m2 CLR
12:25 24.1 °C 12.7 °C 1019.2 hPa SE 0.8 km/h 3.7 km/h 49% 0 mm WeatherDisplay:10.37 W/m2 CLR
12:30 23.9 °C 12.6 °C 1019.2 hPa Calm   1.9 km/h 49% 0 mm WeatherDisplay:10.37 W/m2 CLR
12:35 23.8 °C 12.4 °C 1019.2 hPa WSW 0.5 km/h 3.7 km/h 49% 0 mm WeatherDisplay:10.37 W/m2 CLR
12:40 23.6 °C 12.3 °C 1018.8 hPa South 1 km/h 6.4 km/h 49% 0 mm WeatherDisplay:10.37 W/m2 CLR
12:45 23.3 °C 12.3 °C 1018.8 hPa SSE 1.1 km/h 5.6 km/h 50% 0 mm WeatherDisplay:10.37 W/m2 CLR
12:50 23.3 °C 12.6 °C 1018.8 hPa SSE 0.3 km/h 1.9 km/h 51% 0 mm WeatherDisplay:10.37 W/m2 CLR
12:55 23.4 °C 12.4 °C 1018.8 hPa ENE 1.8 km/h 5.6 km/h 50% 0 mm WeatherDisplay:10.37 W/m2 CLR
13:00 23.8 °C 12.4 °C 1018.5 hPa ENE 3.4 km/h 5.6 km/h 49% 0 mm WeatherDisplay:10.37 W/m2 CLR
13:05 23.9 °C 12.3 °C 1018.5 hPa East 0.3 km/h 1.9 km/h 48% 0 mm WeatherDisplay:10.37 W/m2 CLR
13:10 24 °C 12.6 °C 1018.5 hPa Calm   1.9 km/h 49% 0 mm WeatherDisplay:10.37 W/m2 CLR
13:15 23.9 °C 12.3 °C 1018.5 hPa SE 4.3 km/h 11.1 km/h 48% 0 mm WeatherDisplay:10.37 W/m2 CLR
13:20 24.1 °C 12.7 °C 1018.2 hPa Calm     49% 0 mm WeatherDisplay:10.37 W/m2 CLR
13:25 24.2 °C 12.2 °C 1018.2 hPa SE 0.5 km/h 3.7 km/h 47% 0 mm WeatherDisplay:10.37 W/m2 CLR
13:30 24 °C 12 °C 1018.2 hPa SE 0.3 km/h 1.9 km/h 47% 0 mm WeatherDisplay:10.37 W/m2 CLR
13:35 24 °C 12.6 °C 1018.2 hPa Calm     49% 0 mm WeatherDisplay:10.37 W/m2 CLR
13:40 24.1 °C 12.4 °C 1017.8 hPa Calm     48% 0 mm WeatherDisplay:10.37 W/m2 CLR
13:45 24.2 °C 11.5 °C 1017.8 hPa NE 2.6 km/h 5.6 km/h 45% 0 mm WeatherDisplay:10.37 W/m2 CLR
13:50 24.1 °C 11.1 °C 1017.8 hPa NE 0.8 km/h 3.7 km/h 44% 0 mm WeatherDisplay:10.37 W/m2 CLR
13:55 24.3 °C 10.9 °C 1017.8 hPa NE 0.5 km/h 1.9 km/h 43% 0 mm WeatherDisplay:10.37 W/m2 CLR
14:00 24.4 °C 10.7 °C 1017.5 hPa NE 0.2 km/h 1.9 km/h 42% 0 mm WeatherDisplay:10.37 W/m2 CLR
14:05 24.5 °C 11.4 °C 1017.5 hPa NE 0.5 km/h 5.6 km/h 44% 0 mm WeatherDisplay:10.37 W/m2 CLR
14:10 24.4 °C 10.7 °C 1017.8 hPa Calm     42% 0 mm WeatherDisplay:10.37 W/m2 CLR
14:15 24.6 °C 11.2 °C 1017.5 hPa Calm   1.9 km/h 43% 0 mm WeatherDisplay:10.37 W/m2 CLR
14:20 24.7 °C 10.2 °C 1017.8 hPa Calm     40% 0 mm WeatherDisplay:10.37 W/m2 CLR
14:25 24.7 °C 10.9 °C 1017.8 hPa Calm   1.9 km/h 42% 0 mm WeatherDisplay:10.37 W/m2 CLR
14:30 24.8 °C 10.3 °C 1017.8 hPa Calm   1.9 km/h 40% 0 mm WeatherDisplay:10.37 W/m2 CLR
14:35 24.9 °C 10 °C 1017.8 hPa Calm     39% 0 mm WeatherDisplay:10.37 W/m2 CLR
14:40 25.3 °C 10.4 °C 1017.8 hPa Calm   1.9 km/h 39% 0 mm WeatherDisplay:10.37 W/m2 CLR
14:45 25.4 °C 10.8 °C 1017.8 hPa NNE 0.3 km/h 1.9 km/h 40% 0 mm WeatherDisplay:10.37 W/m2 CLR
14:50 25.3 °C 10.4 °C 1017.8 hPa NNE 0.3 km/h 3.7 km/h 39% 0 mm WeatherDisplay:10.37 W/m2 CLR
14:55 25.3 °C 10.3 °C 1017.8 hPa NE 0.8 km/h 1.9 km/h 39% 0 mm WeatherDisplay:10.37 W/m2 CLR
15:00 25.3 °C 10.7 °C 1017.5 hPa Calm     40% 0 mm WeatherDisplay:10.37 W/m2 CLR
15:05 25.4 °C 10.8 °C 1017.5 hPa Calm     40% 0 mm WeatherDisplay:10.37 W/m2 CLR
15:10 25.4 °C 10.5 °C 1017.5 hPa Calm     39% 0 mm WeatherDisplay:10.37 W/m2 CLR
15:15 25.6 °C 10.9 °C 1017.5 hPa Calm     40% 0 mm WeatherDisplay:10.37 W/m2 CLR
15:20 25.6 °C 10.6 °C 1017.5 hPa NE 0.5 km/h   39% 0 mm WeatherDisplay:10.37 W/m2 CLR
15:25 25.6 °C 11.4 °C 1017.5 hPa Calm     41% 0 mm WeatherDisplay:10.37 W/m2 CLR
15:30 25.5 °C 10.5 °C 1017.5 hPa Calm     39% 0 mm WeatherDisplay:10.37 W/m2 CLR
15:35 25.4 °C 10.4 °C 1017.5 hPa Calm     39% 0 mm WeatherDisplay:10.37 W/m2 CLR
15:40 25.5 °C 10.9 °C 1017.5 hPa Calm     40% 0 mm WeatherDisplay:10.37 W/m2 CLR
15:45 25.6 °C 11 °C 1017.5 hPa NE 0.3 km/h 1.9 km/h 40% 0 mm WeatherDisplay:10.37 W/m2 CLR
15:50 25.7 °C 10.3 °C 1017.5 hPa Calm   1.6 km/h 38% 0 mm WeatherDisplay:10.37 W/m2 CLR
15:55 25.6 °C 10.9 °C 1017.5 hPa NE 0.2 km/h 1.9 km/h 40% 0 mm WeatherDisplay:10.37 W/m2 CLR
16:00 25.3 °C 11.1 °C 1017.5 hPa Calm   1.9 km/h 41% 0 mm WeatherDisplay:10.37 W/m2 CLR
16:05 25.2 °C 11.4 °C 1017.5 hPa NE 0.2 km/h 1.9 km/h 42% 0 mm WeatherDisplay:10.37 W/m2 CLR
16:10 25.2 °C 11.3 °C 1017.5 hPa NE 0.3 km/h 1.9 km/h 42% 0 mm WeatherDisplay:10.37 W/m2 CLR
16:15 25.2 °C 11.7 °C 1017.5 hPa Calm   1.9 km/h 43% 0 mm WeatherDisplay:10.37 W/m2 CLR
16:20 25.1 °C 11.7 °C 1017.2 hPa Calm   3.7 km/h 43% 0 mm WeatherDisplay:10.37 W/m2 CLR
16:25 24.9 °C 11.8 °C 1017.2 hPa Calm     44% 0 mm WeatherDisplay:10.37 W/m2 CLR
16:30 24.8 °C 12.1 °C 1017.5 hPa Calm     45% 0 mm WeatherDisplay:10.37 W/m2 CLR
16:35 24.6 °C 12.2 °C 1017.5 hPa Calm     46% 0 mm WeatherDisplay:10.37 W/m2 CLR
16:40 24.5 °C 12.8 °C 1017.2 hPa Calm     48% 0 mm WeatherDisplay:10.37 W/m2 CLR
16:45 24.4 °C 12.3 °C 1017.5 hPa Calm     47% 0 mm WeatherDisplay:10.37 W/m2 CLR
16:50 24.2 °C 12.2 °C 1017.5 hPa Calm     47% 0 mm WeatherDisplay:10.37 W/m2 CLR
16:55 24.1 °C 12.4 °C 1017.5 hPa Calm     48% 0 mm WeatherDisplay:10.37 W/m2 CLR
17:00 23.8 °C 12.4 °C 1017.5 hPa Calm     49% 0 mm WeatherDisplay:10.37 W/m2 CLR
17:05 23.7 °C 12.6 °C 1017.5 hPa Calm     50% 0 mm WeatherDisplay:10.37 W/m2 CLR
17:10 23.4 °C 12.4 °C 1017.5 hPa Calm     50% 0 mm WeatherDisplay:10.37 W/m2 CLR
17:15 23.3 °C 12.3 °C 1017.5 hPa NE 1.1 km/h 3.7 km/h 50% 0 mm WeatherDisplay:10.37 W/m2 CLR
17:20 23.1 °C 12.1 °C 1017.8 hPa Calm     50% 0 mm WeatherDisplay:10.37 W/m2 CLR
Compliments of Weather Underground